Time;durP1;ratioP1;P1;durP2;ratioP2;P2;SDS_P1;SDS_P2;PMS_P1;PMS_P2;Temp;Humidity;BMP_temperature;BMP_pressure;BME280_temperature;BME280_humidity;BME280_pressure;Samples;Min_cycle;Max_cycle;Signal;HPM_P1;HPM_P2
2023/08/11 00:01:49;;;;;;;4.17;3.77;;;16.60;99.90;;;;;;4987052;28;20218;-30
2023/08/11 00:04:18;;;;;;;4.20;3.80;;;16.60;99.90;;;;;;4985926;28;20209;-30
2023/08/11 00:06:44;;;;;;;4.53;3.50;;;16.60;99.90;;;;;;4981866;28;20187;-30
2023/08/11 00:09:11;;;;;;;4.67;3.40;;;16.50;99.90;;;;;;4984954;28;20180;-30
2023/08/11 00:11:37;;;;;;;6.87;3.43;;;16.40;99.90;;;;;;4984789;28;20237;-30
2023/08/11 00:14:02;;;;;;;4.03;3.63;;;16.30;99.90;;;;;;5004203;28;20266;-30
2023/08/11 00:16:28;;;;;;;5.30;4.13;;;16.30;99.90;;;;;;4987031;28;20179;-30
2023/08/11 00:18:54;;;;;;;4.87;3.90;;;16.40;99.90;;;;;;4990575;28;20281;-30
2023/08/11 00:21:20;;;;;;;4.40;3.87;;;16.30;99.90;;;;;;4990910;28;20210;-30
2023/08/11 00:23:46;;;;;;;5.73;3.93;;;16.30;99.90;;;;;;4982016;28;20187;-30
2023/08/11 00:26:12;;;;;;;6.00;3.90;;;16.30;99.90;;;;;;4983909;28;20171;-30
2023/08/11 00:28:38;;;;;;;4.37;3.70;;;16.20;99.90;;;;;;4991144;28;20187;-30
2023/08/11 00:31:05;;;;;;;5.23;3.83;;;16.20;99.90;;;;;;4983438;28;20192;-30
2023/08/11 00:33:31;;;;;;;5.93;4.03;;;16.20;99.90;;;;;;4983151;28;20273;-31
2023/08/11 00:35:57;;;;;;;5.53;3.83;;;16.20;99.90;;;;;;4984200;28;20190;-30
2023/08/11 00:38:26;;;;;;;4.27;3.87;;;16.20;99.90;;;;;;4980047;28;20273;-30
2023/08/11 00:40:51;;;;;;;5.40;3.90;;;16.20;99.90;;;;;;4982634;28;20239;-30
2023/08/11 00:43:18;;;;;;;6.00;3.80;;;16.20;99.90;;;;;;4992346;28;20207;-30
2023/08/11 00:45:47;;;;;;;4.20;3.70;;;16.20;99.90;;;;;;4987961;28;20179;-30
2023/08/11 00:48:13;;;;;;;4.07;3.63;;;16.10;99.90;;;;;;4986367;28;20198;-30
2023/08/11 00:50:41;;;;;;;4.43;3.70;;;16.10;99.90;;;;;;4987157;28;20208;-31
2023/08/11 00:53:07;;;;;;;7.23;4.20;;;16.10;99.90;;;;;;5007026;28;20179;-31
2023/08/11 00:55:33;;;;;;;7.27;4.47;;;16.10;99.90;;;;;;4998553;28;20233;-30
2023/08/11 00:58:00;;;;;;;4.80;4.20;;;16.00;99.90;;;;;;5019565;28;20183;-30
2023/08/11 01:00:28;;;;;;;4.97;4.27;;;16.00;99.90;;;;;;4979367;28;20217;-30
2023/08/11 01:02:53;;;;;;;5.37;3.83;;;15.90;99.90;;;;;;4977400;28;20180;-31
2023/08/11 01:05:20;;;;;;;4.37;3.90;;;15.90;99.90;;;;;;4984107;28;20174;-30
2023/08/11 01:07:54;;;;;;;6.60;4.30;;;15.80;99.90;;;;;;4992116;28;20175;-30
2023/08/11 01:10:42;;;;;;;4.70;3.80;;;15.80;99.90;;;;;;4980740;28;20205;-30
2023/08/11 01:13:13;;;;;;;6.47;4.70;;;15.60;99.90;;;;;;4976634;28;20184;-30
2023/08/11 01:15:43;;;;;;;4.77;4.20;;;15.60;99.90;;;;;;4974981;28;20192;-32
2023/08/11 01:18:11;;;;;;;4.63;4.00;;;15.60;99.90;;;;;;4975999;28;20188;-30
2023/08/11 01:20:38;;;;;;;5.60;4.50;;;15.50;99.90;;;;;;4978161;28;20215;-31
2023/08/11 01:23:07;;;;;;;4.67;3.83;;;15.60;99.90;;;;;;4982737;28;20183;-30
2023/08/11 01:25:34;;;;;;;4.40;3.80;;;15.60;99.90;;;;;;4993164;28;20637;-31
2023/08/11 01:28:00;;;;;;;4.90;4.40;;;15.60;99.90;;;;;;5003805;28;20206;-30
2023/08/11 01:30:29;;;;;;;4.50;4.10;;;15.50;99.90;;;;;;4978695;28;20210;-30
2023/08/11 01:32:56;;;;;;;4.60;4.20;;;15.50;99.90;;;;;;4984930;28;20188;-30
2023/08/11 01:35:22;;;;;;;5.57;4.37;;;15.30;99.90;;;;;;4978616;28;20183;-30
2023/08/11 01:37:48;;;;;;;5.33;4.17;;;15.30;99.90;;;;;;4987148;28;20182;-30
2023/08/11 01:40:14;;;;;;;6.87;4.57;;;15.40;99.90;;;;;;5001985;28;20210;-30
2023/08/11 01:42:42;;;;;;;5.57;4.40;;;15.30;99.90;;;;;;4978380;28;20210;-31
2023/08/11 01:45:10;;;;;;;4.90;4.00;;;15.40;99.90;;;;;;4975362;28;20199;-30
2023/08/11 01:47:38;;;;;;;4.80;3.93;;;15.50;99.90;;;;;;4986320;28;20203;-31
2023/08/11 01:50:06;;;;;;;6.33;4.00;;;15.50;99.90;;;;;;4978453;28;20291;-30
2023/08/11 01:52:35;;;;;;;5.20;4.37;;;15.50;99.90;;;;;;4975351;28;20202;-31
2023/08/11 01:55:03;;;;;;;4.37;3.97;;;15.50;99.90;;;;;;4984810;28;20186;-31
2023/08/11 01:57:29;;;;;;;7.07;4.80;;;15.50;99.90;;;;;;4985745;28;20191;-30
2023/08/11 01:59:55;;;;;;;4.97;3.73;;;15.40;99.90;;;;;;4978208;28;20207;-30
2023/08/11 02:02:21;;;;;;;6.13;4.37;;;15.40;99.90;;;;;;5006103;28;20170;-30
2023/08/11 02:04:48;;;;;;;7.20;4.10;;;15.40;99.90;;;;;;4991292;28;20218;-30
2023/08/11 02:07:17;;;;;;;4.97;4.07;;;15.30;99.90;;;;;;5001281;28;20187;-30
2023/08/11 02:09:43;;;;;;;4.77;4.20;;;15.30;99.90;;;;;;4974774;28;20206;-30
2023/08/11 02:12:09;;;;;;;4.43;4.03;;;15.30;99.90;;;;;;5002120;28;20183;-30
2023/08/11 02:14:35;;;;;;;5.70;4.00;;;15.20;99.90;;;;;;5008991;28;20186;-31
2023/08/11 02:17:01;;;;;;;8.10;4.50;;;15.20;99.90;;;;;;4995390;28;20183;-30
2023/08/11 02:19:27;;;;;;;5.00;4.50;;;15.20;99.90;;;;;;4983355;28;20217;-30
2023/08/11 02:21:53;;;;;;;5.17;4.40;;;15.10;99.90;;;;;;4984677;28;20207;-31
2023/08/11 02:24:19;;;;;;;4.97;4.43;;;15.10;99.90;;;;;;4985599;28;20180;-31
2023/08/11 02:26:44;;;;;;;4.93;4.33;;;15.20;99.90;;;;;;4976942;28;20183;-30
2023/08/11 02:29:10;;;;;;;4.60;4.00;;;15.20;99.90;;;;;;4977420;28;20187;-30
2023/08/11 02:31:36;;;;;;;7.70;4.60;;;15.20;99.90;;;;;;4977514;28;20183;-31
2023/08/11 02:34:02;;;;;;;6.83;4.70;;;15.20;99.90;;;;;;4976303;28;20183;-30
2023/08/11 02:36:28;;;;;;;6.70;4.80;;;15.20;99.90;;;;;;4976307;28;20187;-31
2023/08/11 02:38:54;;;;;;;8.90;4.50;;;15.10;99.90;;;;;;4977396;28;20187;-31
2023/08/11 02:41:20;;;;;;;4.63;4.13;;;15.10;99.90;;;;;;4977095;28;20210;-31
2023/08/11 02:43:46;;;;;;;5.57;4.50;;;15.00;99.90;;;;;;4977386;28;20175;-31
2023/08/11 02:46:12;;;;;;;6.43;4.70;;;15.00;99.90;;;;;;4969234;28;20191;-30
2023/08/11 02:48:39;;;;;;;5.20;4.57;;;15.00;99.90;;;;;;4977217;28;20183;-30
2023/08/11 02:51:05;;;;;;;7.47;5.03;;;14.90;99.90;;;;;;4984856;28;20233;-31
2023/08/11 02:53:31;;;;;;;5.87;4.77;;;14.90;99.90;;;;;;4977047;28;20194;-31
2023/08/11 02:56:01;;;;;;;4.97;4.33;;;14.90;99.90;;;;;;4977332;28;20183;-30
2023/08/11 02:58:27;;;;;;;5.10;4.40;;;14.90;99.90;;;;;;4974360;28;20219;-30
2023/08/11 03:00:53;;;;;;;6.93;4.70;;;14.90;99.90;;;;;;4990285;28;20294;-31
2023/08/11 03:03:19;;;;;;;7.57;4.50;;;14.90;99.90;;;;;;4977414;28;20267;-31
2023/08/11 03:05:46;;;;;;;5.30;4.57;;;14.90;99.90;;;;;;4976136;28;20242;-30
2023/08/11 03:08:12;;;;;;;4.30;3.90;;;14.80;99.90;;;;;;4977034;28;20183;-30
2023/08/11 03:10:38;;;;;;;5.33;4.70;;;14.90;99.90;;;;;;4977527;28;20214;-31
2023/08/11 03:13:04;;;;;;;5.00;4.50;;;14.80;99.90;;;;;;4977263;28;20198;-31
2023/08/11 03:15:30;;;;;;;5.70;4.37;;;14.80;99.90;;;;;;4973792;28;20196;-33
2023/08/11 03:17:56;;;;;;;6.17;4.50;;;14.80;99.90;;;;;;4974493;28;20190;-31
2023/08/11 03:20:24;;;;;;;4.60;3.97;;;14.80;99.90;;;;;;4984874;28;20211;-32
2023/08/11 03:22:50;;;;;;;7.13;4.53;;;14.70;99.90;;;;;;4985117;28;20180;-33
2023/08/11 03:25:20;;;;;;;4.77;4.10;;;14.70;99.90;;;;;;4977440;28;20215;-30
2023/08/11 03:27:47;;;;;;;8.90;4.70;;;14.70;99.90;;;;;;4976889;28;20191;-30
2023/08/11 03:30:21;;;;;;;5.50;4.13;;;14.70;99.90;;;;;;4980067;28;20295;-31
2023/08/11 03:32:51;;;;;;;5.00;4.57;;;14.60;99.90;;;;;;4980034;28;20194;-31
2023/08/11 03:35:19;;;;;;;7.83;4.57;;;14.60;99.90;;;;;;4986904;28;20181;-30
2023/08/11 03:37:46;;;;;;;5.73;4.20;;;14.50;99.90;;;;;;4984865;28;20198;-31
2023/08/11 03:40:13;;;;;;;5.07;4.53;;;14.50;99.90;;;;;;4980212;28;20202;-33
2023/08/11 03:42:42;;;;;;;4.93;4.43;;;14.50;99.90;;;;;;4977090;28;20266;-31
2023/08/11 03:45:13;;;;;;;5.80;4.30;;;14.40;99.90;;;;;;4979176;28;20245;-30
2023/08/11 03:47:40;;;;;;;6.47;5.10;;;14.40;99.90;;;;;;4976668;28;20251;-31
2023/08/11 03:50:08;;;;;;;4.63;4.20;;;14.40;99.90;;;;;;5005631;28;20211;-31
2023/08/11 03:52:36;;;;;;;6.33;4.40;;;14.40;99.90;;;;;;5008180;28;20182;-30
2023/08/11 03:55:03;;;;;;;5.93;4.83;;;14.30;99.90;;;;;;4981996;28;20187;-30
2023/08/11 03:57:37;;;;;;;6.67;4.70;;;14.40;99.90;;;;;;4976250;28;20254;-31
2023/08/11 04:00:14;;;;;;;4.63;4.10;;;14.30;99.90;;;;;;4994502;28;20207;-30
2023/08/11 04:02:42;;;;;;;5.27;4.70;;;14.40;99.90;;;;;;4996480;28;20215;-31
2023/08/11 04:05:10;;;;;;;7.17;4.67;;;14.30;99.90;;;;;;4979123;28;20184;-30
2023/08/11 04:07:37;;;;;;;4.67;4.23;;;14.40;99.90;;;;;;4979820;28;20183;-31
2023/08/11 04:10:04;;;;;;;5.03;4.50;;;14.40;99.90;;;;;;4977923;28;20208;-31
2023/08/11 04:12:33;;;;;;;5.10;4.60;;;14.40;99.90;;;;;;4976660;28;20184;-31
2023/08/11 04:14:59;;;;;;;7.07;4.53;;;14.40;99.90;;;;;;4979676;28;20195;-33
2023/08/11 04:17:26;;;;;;;6.80;4.60;;;14.40;99.90;;;;;;4976608;28;20184;-31
2023/08/11 04:19:53;;;;;;;6.17;4.80;;;14.40;99.90;;;;;;4975520;28;20223;-31
2023/08/11 04:22:20;;;;;;;9.17;5.03;;;14.40;99.90;;;;;;4978410;28;20207;-31
2023/08/11 04:24:46;;;;;;;7.30;5.17;;;14.30;99.90;;;;;;4980228;28;20188;-31
2023/08/11 04:27:12;;;;;;;5.13;4.63;;;14.40;99.90;;;;;;4979934;28;20255;-31
2023/08/11 04:29:38;;;;;;;5.37;4.87;;;14.30;99.90;;;;;;4980212;28;20292;-31
2023/08/11 04:32:06;;;;;;;6.37;4.60;;;14.30;99.90;;;;;;4980671;28;20194;-31
2023/08/11 04:34:34;;;;;;;6.77;4.40;;;14.30;99.90;;;;;;4976449;28;20180;-31
2023/08/11 04:37:00;;;;;;;7.10;4.20;;;14.20;99.90;;;;;;4976973;28;20195;-31
2023/08/11 04:39:27;;;;;;;6.13;4.17;;;14.20;99.90;;;;;;4976359;28;20200;-31
2023/08/11 04:41:53;;;;;;;7.17;4.67;;;14.20;99.90;;;;;;4983699;28;20210;-31
2023/08/11 04:44:19;;;;;;;5.80;4.80;;;14.20;99.90;;;;;;4976437;28;20213;-30
2023/08/11 04:46:45;;;;;;;6.67;4.67;;;14.20;99.90;;;;;;4970656;28;20200;-31
2023/08/11 04:49:11;;;;;;;4.70;4.30;;;14.20;99.90;;;;;;4997133;28;20279;-31
2023/08/11 04:51:37;;;;;;;7.50;4.90;;;14.20;99.90;;;;;;4984694;28;20187;-31
2023/08/11 04:54:03;;;;;;;5.17;4.63;;;14.20;99.90;;;;;;4981690;28;20213;-31
2023/08/11 04:56:29;;;;;;;5.53;4.40;;;14.20;99.90;;;;;;4975642;28;20184;-31
2023/08/11 04:58:55;;;;;;;5.63;4.47;;;14.30;99.90;;;;;;4975837;28;20191;-31
2023/08/11 05:01:24;;;;;;;7.47;4.90;;;14.30;99.90;;;;;;4970482;28;20215;-31
2023/08/11 05:03:50;;;;;;;5.67;4.17;;;14.40;99.90;;;;;;4978756;28;20269;-31
2023/08/11 05:06:17;;;;;;;5.50;4.57;;;14.40;99.90;;;;;;4977598;28;20227;-31
2023/08/11 05:08:43;;;;;;;5.20;4.67;;;14.40;99.90;;;;;;4979015;28;20197;-31
2023/08/11 05:11:09;;;;;;;5.10;4.20;;;14.40;99.90;;;;;;4977280;28;20632;-31
2023/08/11 05:13:35;;;;;;;5.67;4.33;;;14.40;99.90;;;;;;4975544;28;20179;-31
2023/08/11 05:16:01;;;;;;;5.63;4.50;;;14.50;99.90;;;;;;4975713;28;20213;-31
2023/08/11 05:18:27;;;;;;;6.63;5.10;;;14.60;99.90;;;;;;4978699;28;20195;-31
2023/08/11 05:20:53;;;;;;;7.83;5.00;;;14.70;99.90;;;;;;4994608;28;20222;-31
2023/08/11 05:23:19;;;;;;;5.50;4.73;;;14.70;99.90;;;;;;4978917;28;20190;-31
2023/08/11 05:25:45;;;;;;;7.67;5.30;;;14.70;99.90;;;;;;4975736;28;20218;-31
2023/08/11 05:28:11;;;;;;;7.23;5.03;;;14.90;99.90;;;;;;4977111;28;20195;-32
2023/08/11 05:30:37;;;;;;;8.13;5.40;;;14.90;99.90;;;;;;4978483;28;20203;-31
2023/08/11 05:33:03;;;;;;;5.50;5.00;;;15.00;99.90;;;;;;4978443;28;20221;-31
2023/08/11 05:35:29;;;;;;;7.57;5.37;;;15.10;99.90;;;;;;4967107;28;20282;-31
2023/08/11 05:37:56;;;;;;;7.93;5.57;;;15.20;99.90;;;;;;4974650;28;20187;-31
2023/08/11 05:40:22;;;;;;;5.43;4.93;;;15.30;99.90;;;;;;4977783;28;20203;-31
2023/08/11 05:42:47;;;;;;;5.60;5.00;;;15.40;99.90;;;;;;4974943;28;20215;-30
2023/08/11 05:45:13;;;;;;;6.10;4.87;;;15.50;99.90;;;;;;4969756;28;20211;-31
2023/08/11 05:47:40;;;;;;;7.13;5.37;;;15.60;99.90;;;;;;4978200;28;20190;-31
2023/08/11 05:50:06;;;;;;;8.97;5.57;;;15.80;99.90;;;;;;4974905;28;20235;-32
2023/08/11 05:52:32;;;;;;;5.73;4.63;;;15.80;99.90;;;;;;4990956;28;20176;-32
2023/08/11 05:54:58;;;;;;;5.83;5.00;;;15.90;99.90;;;;;;4958416;28;20195;-31
2023/08/11 05:57:24;;;;;;;5.30;4.50;;;16.10;99.90;;;;;;4976659;28;20183;-31
2023/08/11 05:59:49;;;;;;;5.73;4.70;;;16.20;99.90;;;;;;4977553;28;20256;-31
2023/08/11 06:02:15;;;;;;;6.60;4.97;;;16.20;99.90;;;;;;4977840;28;20191;-31
2023/08/11 06:04:44;;;;;;;7.33;5.37;;;16.30;99.90;;;;;;4977596;28;20218;-32
2023/08/11 06:07:10;;;;;;;7.17;5.50;;;16.30;99.90;;;;;;4984787;28;20206;-31
2023/08/11 06:09:35;;;;;;;5.10;4.60;;;16.50;99.90;;;;;;4967839;28;20238;-32
2023/08/11 06:12:01;;;;;;;9.10;5.10;;;16.60;99.90;;;;;;4990662;28;20195;-32
2023/08/11 06:14:27;;;;;;;6.30;5.70;;;16.80;99.90;;;;;;4974389;28;20216;-31
2023/08/11 06:16:53;;;;;;;6.70;5.03;;;16.80;99.90;;;;;;4973088;28;20278;-31
2023/08/11 06:19:19;;;;;;;6.83;5.30;;;17.00;99.90;;;;;;4977533;28;20215;-32
2023/08/11 06:21:45;;;;;;;5.90;5.30;;;17.00;99.90;;;;;;4983210;28;20217;-31
2023/08/11 06:24:11;;;;;;;7.63;5.13;;;17.20;99.90;;;;;;5001902;28;20218;-31
2023/08/11 06:26:37;;;;;;;6.88;4.97;;;17.30;99.90;;;;;;4972784;28;20188;-32
2023/08/11 06:29:04;;;;;;;5.75;4.60;;;17.30;99.90;;;;;;4973743;28;20249;-31
2023/08/11 06:31:30;;;;;;;6.25;4.47;;;17.30;99.90;;;;;;4979902;28;20219;-31
2023/08/11 06:33:56;;;;;;;5.93;5.15;;;17.50;99.90;;;;;;4982734;28;20192;-31
2023/08/11 06:36:22;;;;;;;5.85;5.25;;;17.60;99.90;;;;;;4975591;28;20183;-31
2023/08/11 06:38:48;;;;;;;7.28;5.40;;;17.70;99.90;;;;;;4977569;28;20299;-31
2023/08/11 06:41:14;;;;;;;7.53;5.15;;;17.80;99.90;;;;;;4975128;28;20691;-32
2023/08/11 06:43:41;;;;;;;7.90;5.30;;;17.90;99.90;;;;;;4973764;28;20210;-32
2023/08/11 06:46:07;;;;;;;5.53;5.03;;;18.00;99.90;;;;;;4974112;28;20213;-32
2023/08/11 06:48:33;;;;;;;6.70;5.05;;;18.00;99.90;;;;;;4976293;28;20214;-32
2023/08/11 06:50:58;;;;;;;7.75;5.38;;;18.10;99.90;;;;;;5009061;28;20348;-31
2023/08/11 06:53:24;;;;;;;5.88;4.50;;;18.20;99.90;;;;;;4985859;28;20183;-31
2023/08/11 06:55:51;;;;;;;5.05;4.35;;;18.30;99.90;;;;;;4973894;28;20184;-32
2023/08/11 06:58:17;;;;;;;6.70;4.95;;;18.40;99.90;;;;;;4977088;28;20187;-32
2023/08/11 07:00:43;;;;;;;6.63;5.00;;;18.50;99.90;;;;;;4973705;28;20212;-31
2023/08/11 07:03:09;;;;;;;6.50;5.43;;;18.60;99.90;;;;;;4973477;28;20187;-31
2023/08/11 07:05:35;;;;;;;7.30;4.57;;;18.70;99.90;;;;;;4976949;28;20190;-32
2023/08/11 07:08:01;;;;;;;5.82;4.50;;;18.80;99.90;;;;;;4977007;28;20184;-31
2023/08/11 07:10:26;;;;;;;6.28;4.68;;;19.00;99.90;;;;;;4980625;28;20275;-32
2023/08/11 07:12:52;;;;;;;7.65;4.72;;;19.10;99.90;;;;;;4980082;28;20215;-33
2023/08/11 07:15:18;;;;;;;5.13;4.72;;;19.20;99.90;;;;;;4974468;28;20198;-31
2023/08/11 07:17:44;;;;;;;6.32;5.10;;;19.40;99.90;;;;;;4976928;28;20195;-31
2023/08/11 07:20:10;;;;;;;6.63;4.97;;;19.40;99.90;;;;;;4975979;28;20242;-32
2023/08/11 07:22:36;;;;;;;6.13;5.00;;;19.50;99.90;;;;;;5008556;28;20183;-31
2023/08/11 07:25:02;;;;;;;6.45;4.57;;;19.60;99.90;;;;;;4985405;28;20177;-32
2023/08/11 07:27:28;;;;;;;5.18;4.78;;;19.80;99.90;;;;;;4979460;28;20185;-32
2023/08/11 07:29:54;;;;;;;6.18;4.97;;;19.90;99.90;;;;;;4977192;28;20211;-32
2023/08/11 07:32:20;;;;;;;4.97;4.47;;;19.90;99.90;;;;;;4985427;28;20187;-32
2023/08/11 07:34:46;;;;;;;5.68;4.78;;;20.10;99.90;;;;;;4970647;28;20184;-32
2023/08/11 07:37:11;;;;;;;6.75;4.50;;;20.10;99.90;;;;;;4973870;28;20190;-32
2023/08/11 07:39:37;;;;;;;6.50;4.70;;;20.30;99.90;;;;;;4996943;28;20314;-31
2023/08/11 07:42:03;;;;;;;5.25;4.35;;;20.40;99.90;;;;;;4977213;28;20215;-32
2023/08/11 07:44:30;;;;;;;6.85;4.47;;;20.50;99.90;;;;;;4979617;28;20183;-32
2023/08/11 07:46:56;;;;;;;6.25;4.25;;;20.60;99.90;;;;;;4976509;28;20207;-32
2023/08/11 07:49:23;;;;;;;5.05;4.28;;;20.80;99.90;;;;;;4994748;28;20199;-31
2023/08/11 07:51:49;;;;;;;5.40;4.38;;;20.90;99.90;;;;;;4984961;28;20184;-31
2023/08/11 07:54:16;;;;;;;5.53;4.53;;;21.00;99.90;;;;;;4976916;28;20207;-32
2023/08/11 07:56:44;;;;;;;4.47;3.95;;;21.10;99.90;;;;;;4976661;28;20191;-32
2023/08/11 07:59:11;;;;;;;4.53;4.13;;;21.20;99.90;;;;;;4979966;28;20251;-32
2023/08/11 08:01:37;;;;;;;5.05;4.50;;;21.40;99.90;;;;;;4976605;28;20215;-32
2023/08/11 08:04:04;;;;;;;4.93;4.40;;;21.50;99.90;;;;;;4975295;28;20210;-32
2023/08/11 08:06:30;;;;;;;4.50;3.70;;;21.70;99.90;;;;;;4978545;28;20191;-32
2023/08/11 08:08:57;;;;;;;4.47;3.92;;;21.90;99.90;;;;;;4979782;28;20198;-32
2023/08/11 08:11:23;;;;;;;4.88;4.28;;;22.00;99.90;;;;;;4977717;28;20192;-32
2023/08/11 08:13:49;;;;;;;4.50;4.10;;;22.20;99.90;;;;;;4978951;28;20206;-31
2023/08/11 08:16:15;;;;;;;4.53;3.97;;;22.30;99.90;;;;;;4979403;28;20183;-31
2023/08/11 08:18:41;;;;;;;5.10;4.55;;;22.40;99.90;;;;;;4971816;28;20187;-32
2023/08/11 08:21:07;;;;;;;4.30;3.90;;;22.50;99.90;;;;;;4982733;28;20212;-32
2023/08/11 08:23:33;;;;;;;5.03;4.30;;;22.50;99.90;;;;;;4976032;28;20206;-31
2023/08/11 08:25:59;;;;;;;4.13;3.72;;;22.60;99.90;;;;;;4960029;28;20190;-32
2023/08/11 08:28:25;;;;;;;4.72;3.97;;;22.70;99.90;;;;;;4960317;28;20235;-32
2023/08/11 08:30:51;;;;;;;4.40;4.00;;;22.80;99.90;;;;;;4970153;28;20243;-32
2023/08/11 08:33:17;;;;;;;4.18;3.78;;;22.90;99.90;;;;;;4993261;28;20195;-32
2023/08/11 08:35:43;;;;;;;4.47;3.72;;;23.10;99.90;;;;;;4979105;28;20191;-32
2023/08/11 08:38:09;;;;;;;4.57;4.13;;;23.30;99.90;;;;;;4975737;28;20184;-31
2023/08/11 08:40:36;;;;;;;4.70;4.00;;;23.30;99.90;;;;;;5012063;28;20235;-32
2023/08/11 08:43:03;;;;;;;3.97;3.25;;;23.40;99.90;;;;;;4979146;28;20180;-32
2023/08/11 08:45:31;;;;;;;3.67;3.38;;;23.70;99.90;;;;;;4977564;28;20215;-32
2023/08/11 08:47:59;;;;;;;3.70;3.40;;;23.90;99.90;;;;;;5011986;28;20175;-32
2023/08/11 08:50:25;;;;;;;4.03;3.63;;;24.10;99.90;;;;;;4980551;28;20214;-32
2023/08/11 08:52:52;;;;;;;3.58;3.03;;;24.30;99.90;;;;;;4985487;28;20478;-32
2023/08/11 08:55:19;;;;;;;3.60;3.30;;;24.50;99.90;;;;;;4978462;28;20187;-32
2023/08/11 08:57:46;;;;;;;3.65;3.30;;;24.80;99.90;;;;;;4975558;28;20328;-32
2023/08/11 09:00:12;;;;;;;3.50;3.20;;;25.00;99.90;;;;;;4978840;28;20219;-32
2023/08/11 09:02:40;;;;;;;4.57;3.65;;;24.90;99.90;;;;;;4995038;28;20187;-32
2023/08/11 09:05:06;;;;;;;4.32;3.22;;;25.00;99.90;;;;;;4975592;28;20215;-32
2023/08/11 09:07:32;;;;;;;3.50;3.20;;;25.20;99.90;;;;;;4977656;28;20234;-32
2023/08/11 09:09:58;;;;;;;4.00;3.53;;;25.40;99.90;;;;;;4995001;28;20234;-32
2023/08/11 09:12:27;;;;;;;4.20;3.42;;;25.60;99.90;;;;;;4994808;28;20191;-32
2023/08/11 09:14:53;;;;;;;4.10;3.70;;;25.70;99.90;;;;;;4975574;28;20224;-32
2023/08/11 09:17:19;;;;;;;4.43;3.25;;;25.90;99.90;;;;;;4979110;28;20191;-32
2023/08/11 09:19:51;;;;;;;3.70;3.35;;;26.00;99.90;;;;;;4982405;28;20210;-32
2023/08/11 09:22:24;;;;;;;4.88;3.60;;;26.00;99.90;;;;;;4997167;28;20211;-32
2023/08/11 09:24:50;;;;;;;3.85;3.47;;;26.00;99.90;;;;;;4974891;28;20169;-32
2023/08/11 09:27:16;;;;;;;4.00;3.35;;;26.20;99.90;;;;;;4974839;28;20187;-33
2023/08/11 09:29:42;;;;;;;5.32;3.78;;;26.40;99.90;;;;;;4975134;28;20215;-32
2023/08/11 09:32:08;;;;;;;3.97;3.50;;;26.60;99.90;;;;;;4973761;28;20179;-32
2023/08/11 09:34:39;;;;;;;3.72;3.42;;;26.70;99.90;;;;;;4974922;28;20194;-32
2023/08/11 09:37:05;;;;;;;4.70;3.17;;;26.90;99.90;;;;;;4979822;28;20179;-33
2023/08/11 09:39:31;;;;;;;5.30;3.30;;;27.00;99.90;;;;;;4974941;28;20342;-33
2023/08/11 09:41:57;;;;;;;3.53;3.22;;;27.20;99.90;;;;;;4974263;28;20290;-32
2023/08/11 09:44:23;;;;;;;4.05;3.75;;;27.40;99.90;;;;;;4976095;28;20172;-32
2023/08/11 09:46:49;;;;;;;5.00;4.07;;;27.40;99.90;;;;;;4985205;28;20194;-31
2023/08/11 09:49:16;;;;;;;3.60;3.30;;;27.60;99.90;;;;;;4978198;28;20186;-33
2023/08/11 09:51:42;;;;;;;4.07;3.15;;;27.70;99.90;;;;;;4985871;28;20179;-32
2023/08/11 09:54:14;;;;;;;3.92;3.53;;;27.90;99.90;;;;;;4977123;28;20239;-32
2023/08/11 09:56:48;;;;;;;4.50;3.60;;;27.90;99.90;;;;;;5002179;28;20182;-32
2023/08/11 09:59:20;;;;;;;4.20;3.58;;;27.90;99.90;;;;;;4974072;28;20208;-32
2023/08/11 10:01:47;;;;;;;3.70;3.13;;;28.00;99.90;;;;;;4969839;28;20231;-32
2023/08/11 10:04:33;;;;;;;3.30;3.00;;;27.90;99.90;;;;;;4994090;28;20179;-32
2023/08/11 10:07:01;;;;;;;3.40;3.10;;;27.80;99.90;;;;;;4971852;28;20179;-32
2023/08/11 10:09:31;;;;;;;3.53;3.22;;;27.90;99.90;;;;;;4975355;28;20294;-32
2023/08/11 10:11:58;;;;;;;4.38;3.05;;;27.90;99.90;;;;;;4974275;28;20188;-34
2023/08/11 10:14:27;;;;;;;3.30;3.00;;;27.90;99.90;;;;;;4974953;28;20245;-33
2023/08/11 10:16:54;;;;;;;6.40;3.00;;;28.00;99.90;;;;;;4974017;28;20188;-33
2023/08/11 10:19:20;;;;;;;3.15;2.95;;;28.00;99.90;;;;;;4974017;28;20203;-32
2023/08/11 10:21:46;;;;;;;3.63;3.28;;;28.00;99.90;;;;;;5001669;28;20219;-32
2023/08/11 10:24:12;;;;;;;3.17;2.97;;;28.10;99.90;;;;;;4993016;28;20191;-32
2023/08/11 10:26:39;;;;;;;2.95;2.58;;;28.20;99.90;;;;;;4977253;28;20198;-32
2023/08/11 10:29:06;;;;;;;4.03;2.70;;;28.30;99.90;;;;;;4974338;28;20248;-33
2023/08/11 10:31:32;;;;;;;3.17;2.45;;;28.40;99.90;;;;;;4977377;28;20187;-32
2023/08/11 10:33:58;;;;;;;2.58;2.38;;;28.60;99.90;;;;;;4973931;28;20247;-33
2023/08/11 10:36:26;;;;;;;2.83;2.63;;;28.70;99.90;;;;;;4989080;28;20246;-32
2023/08/11 10:39:20;;;;;;;2.88;2.67;;;28.80;99.90;;;;;;4977562;28;20211;-32
2023/08/11 10:41:46;;;;;;;2.80;2.60;;;28.90;99.90;;;;;;4975567;28;20287;-32
2023/08/11 10:44:16;;;;;;;2.60;2.40;;;29.00;99.90;;;;;;4973589;28;20175;-32
2023/08/11 10:46:42;;;;;;;2.30;2.10;;;29.00;99.90;;;;;;4976647;28;20198;-32
2023/08/11 10:49:07;;;;;;;2.35;2.20;;;29.10;99.90;;;;;;4977101;28;20183;-32
2023/08/11 10:51:36;;;;;;;2.83;2.63;;;29.30;99.90;;;;;;4984913;28;20182;-33
2023/08/11 10:54:05;;;;;;;3.58;2.58;;;29.50;99.90;;;;;;4976698;28;20187;-33
2023/08/11 10:56:34;;;;;;;2.97;2.40;;;29.70;99.90;;;;;;4974309;28;20187;-32
2023/08/11 10:59:08;;;;;;;2.47;2.13;;;29.90;99.90;;;;;;4973928;28;20191;-32
2023/08/11 11:01:42;;;;;;;2.85;2.65;;;30.00;99.90;;;;;;4991166;28;20207;-32
2023/08/11 11:04:09;;;;;;;3.22;2.65;;;30.20;99.90;;;;;;4976403;28;20172;-32
2023/08/11 11:06:35;;;;;;;5.25;2.75;;;30.20;99.90;;;;;;4993014;28;20239;-32
2023/08/11 11:09:03;;;;;;;2.42;2.20;;;30.40;99.90;;;;;;4972747;28;20184;-32
2023/08/11 11:11:30;;;;;;;2.65;2.40;;;30.40;99.90;;;;;;4976936;28;20187;-32
2023/08/11 11:13:57;;;;;;;3.13;2.83;;;30.40;99.90;;;;;;4973752;28;20184;-32
2023/08/11 11:16:23;;;;;;;2.88;2.67;;;30.50;99.90;;;;;;4972703;28;20194;-32
2023/08/11 11:18:50;;;;;;;2.78;2.58;;;30.60;99.90;;;;;;4976623;28;20245;-32
